createdAt,value
2023-03-26T00:01:05.634Z,0.80
2023-03-26T00:03:35.404Z,1.10
2023-03-26T00:06:10.973Z,0.60
2023-03-26T00:08:39.712Z,0.65
2023-03-26T00:11:10.431Z,0.97
2023-03-26T00:13:37.151Z,0.75
2023-03-26T00:16:04.534Z,1.00
2023-03-26T00:18:31.639Z,0.90
2023-03-26T00:20:59.155Z,0.75
2023-03-26T00:23:27.244Z,0.70
2023-03-26T00:25:56.127Z,0.80
2023-03-26T00:28:24.158Z,0.63
2023-03-26T00:30:58.172Z,0.70
2023-03-26T00:33:24.864Z,0.90
2023-03-26T00:35:56.801Z,0.50
2023-03-26T00:38:26.224Z,0.82
2023-03-26T00:40:53.595Z,0.60
2023-03-26T00:43:22.057Z,0.82
2023-03-26T00:45:55.301Z,0.90
2023-03-26T00:48:28.839Z,1.00
2023-03-26T00:51:06.394Z,0.85
2023-03-26T00:53:33.418Z,0.80
2023-03-26T00:56:00.491Z,0.65
2023-03-26T00:58:27.725Z,1.00
2023-03-26T01:00:59.069Z,0.70
2023-03-26T01:03:33.558Z,0.90
2023-03-26T01:06:07.977Z,0.88
2023-03-26T01:08:38.300Z,0.95
2023-03-26T01:11:14.273Z,0.80
2023-03-26T01:13:50.316Z,0.70
2023-03-26T01:16:39.540Z,0.80
2023-03-26T01:19:23.742Z,0.90
2023-03-26T01:21:50.527Z,0.80
2023-03-26T01:24:17.385Z,0.88
2023-03-26T01:26:52.787Z,0.60
2023-03-26T01:29:22.039Z,0.95
2023-03-26T01:32:09.534Z,1.00
2023-03-26T01:35:01.629Z,0.70
2023-03-26T01:38:10.910Z,0.80
2023-03-26T01:41:10.160Z,0.70
2023-03-26T01:43:36.962Z,0.90
2023-03-26T01:46:06.932Z,1.05
2023-03-26T01:48:51.839Z,0.75
2023-03-26T01:51:35.104Z,1.13
2023-03-26T01:54:05.252Z,1.10
2023-03-26T01:56:38.989Z,0.70
2023-03-26T01:59:36.430Z,1.05
2023-03-26T02:02:21.716Z,0.75
2023-03-26T02:05:12.255Z,1.10
2023-03-26T02:07:51.134Z,0.80
2023-03-26T02:10:23.750Z,0.80
2023-03-26T02:12:50.769Z,0.80
2023-03-26T02:15:17.462Z,0.68
2023-03-26T02:17:44.355Z,0.82
2023-03-26T02:20:14.129Z,1.10
2023-03-26T02:22:45.536Z,1.10
2023-03-26T02:25:18.358Z,1.13
2023-03-26T02:27:46.801Z,0.60
2023-03-26T02:30:21.646Z,0.88
2023-03-26T02:32:52.321Z,1.00
2023-03-26T02:35:21.967Z,0.90
2023-03-26T02:37:52.235Z,0.90
2023-03-26T02:40:22.401Z,1.02
2023-03-26T02:42:50.331Z,1.00
2023-03-26T02:45:17.014Z,0.83
2023-03-26T02:48:15.029Z,0.90
2023-03-26T02:51:08.075Z,0.70
2023-03-26T02:53:49.939Z,1.02
2023-03-26T02:56:45.031Z,0.80
2023-03-26T02:59:46.301Z,0.87
2023-03-26T03:02:44.410Z,0.73
2023-03-26T03:05:33.110Z,0.70
2023-03-26T03:08:28.074Z,0.90
2023-03-26T03:11:22.165Z,1.13
2023-03-26T03:13:50.717Z,0.70
2023-03-26T03:16:26.419Z,0.90
2023-03-26T03:18:57.847Z,0.90
2023-03-26T03:21:29.326Z,0.80
2023-03-26T03:24:00.129Z,1.10
2023-03-26T03:26:30.470Z,0.70
2023-03-26T03:29:01.840Z,1.20
2023-03-26T03:31:28.613Z,0.90
2023-03-26T03:34:00.867Z,0.82
2023-03-26T03:36:30.500Z,1.02
2023-03-26T03:39:05.098Z,0.70
2023-03-26T03:41:32.506Z,0.93
2023-03-26T03:44:01.793Z,0.63
2023-03-26T03:46:30.818Z,0.73
2023-03-26T03:48:57.681Z,1.00
2023-03-26T03:51:29.820Z,0.90
2023-03-26T03:53:58.661Z,1.17
2023-03-26T03:56:36.073Z,1.00
2023-03-26T03:59:25.952Z,0.80
2023-03-26T04:01:52.894Z,0.73
2023-03-26T04:04:32.865Z,0.90
2023-03-26T04:07:02.189Z,1.33
2023-03-26T04:09:36.111Z,1.17
2023-03-26T04:12:10.964Z,1.08
2023-03-26T04:14:44.871Z,0.88
2023-03-26T04:17:16.949Z,1.03
2023-03-26T04:19:45.202Z,1.13
2023-03-26T04:22:13.877Z,1.38
2023-03-26T04:24:54.956Z,1.00
2023-03-26T04:27:41.765Z,1.00
2023-03-26T04:30:23.202Z,1.00
2023-03-26T04:32:58.610Z,1.20
2023-03-26T04:35:30.286Z,1.10
2023-03-26T04:37:57.128Z,1.10
2023-03-26T04:40:34.710Z,1.23
2023-03-26T04:43:02.431Z,1.10
2023-03-26T04:46:03.344Z,1.13
2023-03-26T04:48:33.626Z,0.90
2023-03-26T04:51:01.360Z,1.00
2023-03-26T04:53:28.153Z,1.45
2023-03-26T04:56:37.490Z,1.23
2023-03-26T04:59:26.083Z,1.10
2023-03-26T05:01:54.838Z,1.13
2023-03-26T05:04:24.506Z,1.40
2023-03-26T05:06:57.898Z,1.30
2023-03-26T05:09:34.926Z,1.17
2023-03-26T05:12:11.053Z,1.02
2023-03-26T05:14:51.645Z,1.05
2023-03-26T05:17:34.884Z,0.95
2023-03-26T05:20:02.195Z,1.20
2023-03-26T05:22:29.056Z,1.17
2023-03-26T05:25:09.629Z,1.45
2023-03-26T05:27:36.617Z,1.10
2023-03-26T05:30:05.091Z,1.30
2023-03-26T05:32:38.777Z,1.10
2023-03-26T05:35:05.870Z,1.90
2023-03-26T05:37:33.044Z,2.10
2023-03-26T05:40:11.583Z,1.73
2023-03-26T05:42:46.003Z,1.75
2023-03-26T05:45:35.727Z,1.98
2023-03-26T05:48:15.322Z,2.70
2023-03-26T05:50:41.932Z,2.08
2023-03-26T05:53:08.660Z,1.70
2023-03-26T05:55:58.204Z,3.15
2023-03-26T05:58:43.727Z,1.10
2023-03-26T06:01:29.322Z,1.53
2023-03-26T06:04:17.546Z,1.30
2023-03-26T06:06:55.283Z,1.38
2023-03-26T06:09:22.844Z,0.90
2023-03-26T06:11:49.878Z,1.20
2023-03-26T06:14:16.948Z,1.20
2023-03-26T06:17:04.057Z,1.17
2023-03-26T06:19:46.302Z,1.40
2023-03-26T06:22:22.214Z,1.30
2023-03-26T06:25:27.280Z,0.95
2023-03-26T06:28:19.681Z,1.13
2023-03-26T06:30:54.083Z,1.50
2023-03-26T06:33:40.349Z,1.20
2023-03-26T06:36:08.113Z,1.30
2023-03-26T06:38:35.411Z,1.50
2023-03-26T06:41:05.738Z,1.77
2023-03-26T06:43:51.119Z,1.10
2023-03-26T06:46:55.852Z,1.20
2023-03-26T06:49:44.228Z,1.38
2023-03-26T06:52:31.980Z,1.10
2023-03-26T06:55:06.472Z,1.10
2023-03-26T06:57:52.299Z,1.50
2023-03-26T07:00:37.798Z,1.10
2023-03-26T07:03:39.860Z,1.00
2023-03-26T07:06:24.736Z,1.17
2023-03-26T07:09:09.597Z,1.40
2023-03-26T07:11:54.913Z,1.25
2023-03-26T07:14:25.103Z,1.30
2023-03-26T07:17:17.869Z,1.20
2023-03-26T07:20:01.361Z,0.90
2023-03-26T07:22:28.472Z,1.20
2023-03-26T07:25:04.491Z,1.52
2023-03-26T07:28:02.900Z,1.50
2023-03-26T07:31:12.177Z,1.42
2023-03-26T07:33:48.013Z,1.08
2023-03-26T07:36:48.324Z,1.10
2023-03-26T07:40:10.666Z,1.13
2023-03-26T07:43:32.102Z,1.40
2023-03-26T07:46:17.806Z,1.02
2023-03-26T07:49:07.035Z,1.30
2023-03-26T07:51:53.747Z,1.10
2023-03-26T07:54:50.387Z,1.27
2023-03-26T07:57:47.463Z,1.30
2023-03-26T08:00:46.576Z,1.55
2023-03-26T08:03:17.546Z,1.17
2023-03-26T08:06:24.041Z,1.13
2023-03-26T08:09:34.859Z,1.20
2023-03-26T08:12:42.616Z,0.93
2023-03-26T08:15:25.704Z,1.40
2023-03-26T08:17:56.488Z,1.10
2023-03-26T08:20:41.463Z,1.50
2023-03-26T08:23:27.692Z,1.13
2023-03-26T08:26:16.190Z,1.50
2023-03-26T08:28:45.981Z,1.10
2023-03-26T08:31:14.021Z,1.23
2023-03-26T08:33:41.216Z,1.30
2023-03-26T08:36:09.681Z,1.23
2023-03-26T08:38:36.462Z,1.13
2023-03-26T08:41:37.148Z,1.42
2023-03-26T08:44:18.667Z,1.52
2023-03-26T08:47:16.737Z,1.57
2023-03-26T08:49:52.907Z,1.98
2023-03-26T08:52:56.759Z,1.45
2023-03-26T08:55:51.753Z,2.00
2023-03-26T08:58:42.810Z,2.20
2023-03-26T09:01:27.782Z,1.50
2023-03-26T09:04:16.263Z,1.50
2023-03-26T09:07:19.869Z,1.85
2023-03-26T09:10:24.895Z,2.08
2023-03-26T09:13:29.114Z,1.35
2023-03-26T09:15:56.138Z,1.30
2023-03-26T09:18:47.393Z,1.35
2023-03-26T09:21:32.074Z,2.03
2023-03-26T09:24:36.084Z,1.50
2023-03-26T09:27:24.262Z,1.00
2023-03-26T09:30:09.946Z,1.20
2023-03-26T09:32:51.424Z,1.10
2023-03-26T09:35:45.520Z,1.10
2023-03-26T09:38:23.551Z,1.05
2023-03-26T09:41:06.788Z,1.00
2023-03-26T09:43:57.992Z,1.40
2023-03-26T09:46:33.819Z,1.00
2023-03-26T09:49:00.388Z,1.27
2023-03-26T09:51:34.782Z,0.93
2023-03-26T09:54:19.564Z,0.85
2023-03-26T09:57:18.578Z,0.80
2023-03-26T10:00:23.013Z,1.23
2023-03-26T10:03:08.139Z,1.10
2023-03-26T10:05:52.133Z,1.02
2023-03-26T10:08:50.112Z,1.17
2023-03-26T10:11:27.870Z,0.87
2023-03-26T10:14:05.257Z,0.95
2023-03-26T10:16:50.706Z,0.88
2023-03-26T10:19:20.582Z,1.10
2023-03-26T10:21:57.377Z,0.90
2023-03-26T10:24:58.912Z,0.80
2023-03-26T10:27:56.808Z,0.75
2023-03-26T10:30:47.899Z,0.80
2023-03-26T10:33:42.241Z,1.00
2023-03-26T10:36:30.208Z,1.02
2023-03-26T10:39:05.647Z,1.20
2023-03-26T10:42:01.840Z,1.00
2023-03-26T10:45:00.609Z,0.80
2023-03-26T10:47:45.880Z,0.80
2023-03-26T10:50:49.818Z,0.80
2023-03-26T10:53:38.549Z,0.90
2023-03-26T10:56:07.897Z,1.08
2023-03-26T10:58:48.829Z,0.90
2023-03-26T11:01:55.473Z,1.15
2023-03-26T11:04:40.790Z,0.77
2023-03-26T11:07:33.343Z,0.73
2023-03-26T11:10:18.681Z,1.10
2023-03-26T11:12:52.600Z,0.80
2023-03-26T11:15:31.145Z,1.20
2023-03-26T11:18:03.801Z,0.93
2023-03-26T11:20:56.788Z,1.00
2023-03-26T11:24:04.879Z,0.88
2023-03-26T11:26:41.883Z,0.88
2023-03-26T11:29:31.630Z,1.10
2023-03-26T11:32:40.722Z,0.93
2023-03-26T11:35:39.812Z,1.10
2023-03-26T11:38:32.851Z,1.20
2023-03-26T11:41:01.901Z,1.15
2023-03-26T11:43:49.592Z,0.80
2023-03-26T11:46:20.414Z,1.00
2023-03-26T11:48:52.580Z,0.70
2023-03-26T11:51:34.393Z,1.00
2023-03-26T11:54:06.371Z,1.02
2023-03-26T11:57:04.597Z,0.85
2023-03-26T11:59:59.386Z,1.15
2023-03-26T12:02:35.632Z,0.97
2023-03-26T12:05:22.245Z,1.13
2023-03-26T12:08:18.938Z,1.30
2023-03-26T12:10:58.559Z,1.13
2023-03-26T12:13:51.076Z,1.08
2023-03-26T12:16:20.762Z,1.00
2023-03-26T12:19:18.820Z,1.50
2023-03-26T12:21:50.088Z,1.20
2023-03-26T12:24:29.999Z,1.20
2023-03-26T12:27:02.189Z,1.60
2023-03-26T12:29:34.377Z,1.10
2023-03-26T12:32:14.086Z,1.08
2023-03-26T12:34:41.494Z,1.25
2023-03-26T12:37:38.490Z,1.30
2023-03-26T12:40:15.044Z,1.20
2023-03-26T12:44:52.690Z,1.30
2023-03-26T12:45:43.265Z,1.15
2023-03-26T12:48:15.718Z,1.20
2023-03-26T12:51:31.126Z,1.20
2023-03-26T12:54:38.037Z,1.20
2023-03-26T12:57:13.410Z,1.10
2023-03-26T13:00:12.437Z,1.33
2023-03-26T13:02:51.229Z,1.23
2023-03-26T13:06:02.636Z,1.50
2023-03-26T13:08:57.487Z,1.50
2023-03-26T13:11:49.974Z,1.40
2023-03-26T13:14:46.866Z,1.38
2023-03-26T13:17:23.317Z,1.25
2023-03-26T13:20:12.217Z,1.02
2023-03-26T13:23:05.460Z,1.45
2023-03-26T13:25:47.019Z,1.57
2023-03-26T13:28:56.253Z,1.73
2023-03-26T13:32:14.119Z,1.67
2023-03-26T13:35:28.482Z,1.40
2023-03-26T13:38:29.232Z,1.45
2023-03-26T13:41:24.221Z,1.37
2023-03-26T13:43:57.795Z,1.00
2023-03-26T13:46:48.857Z,0.90
2023-03-26T13:49:19.583Z,0.93
2023-03-26T13:52:00.690Z,0.80
2023-03-26T13:54:35.393Z,1.00
2023-03-26T13:57:10.288Z,2.30
2023-03-26T13:59:50.989Z,1.55
2023-03-26T14:02:54.682Z,1.58
2023-03-26T14:05:26.868Z,1.23
2023-03-26T14:08:00.543Z,1.00
2023-03-26T14:10:35.822Z,0.98
2023-03-26T14:13:32.733Z,0.88
2023-03-26T14:16:08.003Z,1.60
2023-03-26T14:18:49.590Z,1.60
2023-03-26T14:21:41.232Z,1.10
2023-03-26T14:24:31.029Z,0.88
2023-03-26T14:27:16.382Z,1.10
2023-03-26T14:30:11.338Z,1.02
2023-03-26T14:32:53.509Z,0.80
2023-03-26T14:35:38.821Z,0.87
2023-03-26T14:38:34.608Z,0.90
2023-03-26T14:41:22.772Z,0.90
2023-03-26T14:44:15.933Z,1.00
2023-03-26T14:46:56.487Z,0.93
2023-03-26T14:49:32.122Z,0.83
2023-03-26T14:52:05.118Z,0.95
2023-03-26T14:54:36.949Z,0.77
2023-03-26T14:57:41.222Z,0.80
2023-03-26T15:00:25.927Z,1.00
2023-03-26T15:03:07.905Z,1.53
2023-03-26T15:06:02.495Z,1.10
2023-03-26T15:09:10.453Z,1.10
2023-03-26T15:12:12.372Z,1.40
2023-03-26T15:14:58.227Z,0.93
2023-03-26T15:18:06.630Z,0.83
2023-03-26T15:21:01.809Z,1.05
2023-03-26T15:24:02.454Z,1.00
2023-03-26T15:27:01.596Z,0.80
2023-03-26T15:30:05.553Z,1.00
2023-03-26T15:33:14.470Z,1.03
2023-03-26T15:36:03.546Z,1.00
2023-03-26T15:38:48.543Z,1.08
2023-03-26T15:41:44.243Z,1.10
2023-03-26T15:44:40.876Z,1.02
2023-03-26T15:47:52.294Z,1.23
2023-03-26T15:50:39.859Z,1.17
2023-03-26T15:53:18.948Z,1.95
2023-03-26T15:56:07.423Z,1.90
2023-03-26T15:58:55.229Z,2.40
2023-03-26T16:01:46.680Z,1.50
2023-03-26T16:04:51.860Z,0.90
2023-03-26T16:07:34.172Z,1.13
2023-03-26T16:10:29.332Z,0.90
2023-03-26T16:13:16.462Z,0.98
2023-03-26T16:15:52.683Z,1.40
2023-03-26T16:18:27.386Z,4.38
2023-03-26T16:21:30.492Z,1.23
2023-03-26T16:24:24.910Z,1.42
2023-03-26T16:26:51.442Z,1.23
2023-03-26T16:29:23.840Z,1.60
2023-03-26T16:32:30.992Z,1.73
2023-03-26T16:35:00.178Z,1.02
2023-03-26T16:37:36.233Z,0.95
2023-03-26T16:40:18.547Z,1.17
2023-03-26T16:43:17.164Z,1.20
2023-03-26T16:45:43.769Z,1.08
2023-03-26T16:48:48.975Z,1.48
2023-03-26T16:51:31.460Z,0.80
2023-03-26T16:54:09.591Z,0.90
2023-03-26T16:56:49.105Z,1.10
2023-03-26T17:00:05.508Z,0.90
2023-03-26T17:02:56.828Z,0.70
2023-03-26T17:05:34.120Z,1.00
2023-03-26T17:08:10.883Z,0.80
2023-03-26T17:10:46.772Z,1.00
2023-03-26T17:13:26.059Z,1.05
2023-03-26T17:16:10.015Z,0.65
2023-03-26T17:18:50.741Z,1.08
2023-03-26T17:21:46.744Z,1.80
2023-03-26T17:24:41.143Z,1.00
2023-03-26T17:27:49.888Z,1.17
2023-03-26T17:31:03.252Z,1.10
2023-03-26T17:33:36.637Z,0.95
2023-03-26T17:36:11.995Z,1.10
2023-03-26T17:38:44.901Z,1.00
2023-03-26T17:41:16.524Z,1.00
2023-03-26T17:43:47.006Z,1.08
2023-03-26T17:46:36.324Z,1.13
2023-03-26T17:49:11.582Z,0.88
2023-03-26T17:51:58.850Z,0.90
2023-03-26T17:54:28.598Z,1.67
2023-03-26T17:57:00.567Z,4.43
2023-03-26T17:59:28.061Z,1.55
2023-03-26T18:01:58.985Z,1.02
2023-03-26T18:04:36.687Z,0.80
2023-03-26T18:07:16.952Z,1.00
2023-03-26T18:10:10.545Z,1.10
2023-03-26T18:13:03.761Z,1.20
2023-03-26T18:15:42.782Z,0.85
2023-03-26T18:18:21.778Z,0.80
2023-03-26T18:20:50.950Z,0.70
2023-03-26T18:23:35.918Z,0.70
2023-03-26T18:26:11.408Z,0.73
2023-03-26T18:28:44.073Z,0.70
2023-03-26T18:31:38.995Z,0.90
2023-03-26T18:34:14.249Z,0.65
2023-03-26T18:36:41.485Z,1.10
2023-03-26T18:39:13.350Z,1.05
2023-03-26T18:41:42.105Z,0.90
2023-03-26T18:44:17.629Z,1.20
2023-03-26T18:46:44.732Z,1.23
2023-03-26T18:49:16.508Z,0.80
2023-03-26T18:51:55.960Z,0.70
2023-03-26T18:54:24.461Z,1.02
2023-03-26T18:56:52.155Z,0.70
2023-03-26T18:59:27.936Z,0.90
2023-03-26T19:02:04.365Z,0.90
2023-03-26T19:04:33.876Z,0.85
2023-03-26T19:07:01.578Z,0.82
2023-03-26T19:09:32.038Z,0.70
2023-03-26T19:12:08.942Z,0.77
2023-03-26T19:14:51.452Z,1.05
2023-03-26T19:17:18.349Z,1.00
2023-03-26T19:19:45.146Z,0.90
2023-03-26T19:22:11.816Z,0.90
2023-03-26T19:24:40.981Z,0.80
2023-03-26T19:27:08.662Z,1.00
2023-03-26T19:29:36.236Z,0.82
2023-03-26T19:32:06.470Z,0.80
2023-03-26T19:34:38.981Z,1.00
2023-03-26T19:37:25.038Z,0.90
2023-03-26T19:40:12.664Z,1.00
2023-03-26T19:42:43.031Z,0.80
2023-03-26T19:45:17.937Z,0.80
2023-03-26T19:47:48.652Z,0.93
2023-03-26T19:50:29.958Z,0.90
2023-03-26T19:53:17.702Z,1.20
2023-03-26T19:55:59.780Z,1.02
2023-03-26T19:58:28.608Z,1.20
2023-03-26T20:00:58.895Z,1.00
2023-03-26T20:03:29.584Z,1.00
2023-03-26T20:05:56.520Z,1.42
2023-03-26T20:08:26.986Z,1.17
2023-03-26T20:10:56.306Z,1.30
2023-03-26T20:13:23.203Z,1.40
2023-03-26T20:16:05.815Z,1.67
2023-03-26T20:18:33.865Z,1.80
2023-03-26T20:21:00.681Z,1.70
2023-03-26T20:23:28.870Z,1.65
2023-03-26T20:25:56.029Z,1.63
2023-03-26T20:28:24.283Z,1.48
2023-03-26T20:30:54.384Z,1.50
2023-03-26T20:33:27.048Z,1.42
2023-03-26T20:35:58.520Z,1.40
2023-03-26T20:38:39.129Z,1.33
2023-03-26T20:41:10.207Z,1.52
2023-03-26T20:43:37.342Z,1.30
2023-03-26T20:46:04.110Z,1.30
2023-03-26T20:48:31.498Z,1.75
2023-03-26T20:50:58.150Z,4.07
2023-03-26T20:53:24.906Z,3.22
2023-03-26T20:55:51.796Z,3.22
2023-03-26T20:58:30.680Z,3.28
2023-03-26T21:01:02.240Z,2.22
2023-03-26T21:03:29.274Z,1.60
2023-03-26T21:06:00.683Z,1.50
2023-03-26T21:08:33.975Z,3.50
2023-03-26T21:11:04.783Z,3.28
2023-03-26T21:13:43.505Z,3.70
2023-03-26T21:16:11.985Z,2.10
2023-03-26T21:18:39.713Z,2.20
2023-03-26T21:21:31.006Z,1.63
2023-03-26T21:24:25.155Z,1.70
2023-03-26T21:27:26.283Z,1.40
2023-03-26T21:29:56.296Z,1.30
2023-03-26T21:32:23.329Z,1.30
2023-03-26T21:34:58.467Z,1.50
2023-03-26T21:37:26.430Z,1.30
2023-03-26T21:39:53.346Z,1.42
2023-03-26T21:42:20.370Z,1.47
2023-03-26T21:44:47.670Z,1.63
2023-03-26T21:47:14.842Z,1.70
2023-03-26T21:49:41.820Z,1.60
2023-03-26T21:52:15.162Z,1.60
2023-03-26T21:54:43.185Z,1.70
2023-03-26T21:57:36.660Z,1.40
2023-03-26T22:00:11.469Z,1.50
2023-03-26T22:03:01.873Z,1.42
2023-03-26T22:05:43.361Z,1.23
2023-03-26T22:08:24.265Z,1.00
2023-03-26T22:10:51.131Z,0.90
2023-03-26T22:13:17.658Z,0.75
2023-03-26T22:15:46.014Z,0.90
2023-03-26T22:18:14.175Z,0.70
2023-03-26T22:20:42.647Z,1.20
2023-03-26T22:23:10.786Z,0.85
2023-03-26T22:25:38.625Z,1.00
2023-03-26T22:28:05.337Z,1.10
2023-03-26T22:30:33.098Z,0.90
2023-03-26T22:32:59.822Z,0.93
2023-03-26T22:35:26.656Z,0.95
2023-03-26T22:37:53.421Z,0.85
2023-03-26T22:40:28.231Z,0.85
2023-03-26T22:42:55.139Z,1.10
2023-03-26T22:45:22.851Z,1.10
2023-03-26T22:47:49.901Z,1.02
2023-03-26T22:50:16.664Z,1.20
2023-03-26T22:52:43.332Z,0.90
2023-03-26T22:55:11.501Z,1.00
2023-03-26T22:57:39.554Z,1.00
2023-03-26T23:00:16.381Z,0.90
2023-03-26T23:02:46.972Z,1.20
2023-03-26T23:05:14.372Z,1.00
2023-03-26T23:07:42.372Z,1.10
2023-03-26T23:10:09.963Z,0.90
2023-03-26T23:12:38.866Z,0.90
2023-03-26T23:15:06.073Z,0.90
2023-03-26T23:17:35.485Z,0.98
2023-03-26T23:20:06.101Z,1.23
2023-03-26T23:22:35.205Z,1.05
2023-03-26T23:25:02.009Z,1.10
2023-03-26T23:27:29.652Z,1.20
2023-03-26T23:29:56.840Z,1.25
2023-03-26T23:32:25.221Z,1.10
2023-03-26T23:34:52.262Z,0.88
2023-03-26T23:37:23.101Z,1.33
2023-03-26T23:39:51.063Z,1.20
2023-03-26T23:42:28.529Z,1.10
2023-03-26T23:44:57.252Z,0.98
2023-03-26T23:47:25.074Z,1.13
2023-03-26T23:49:51.742Z,1.10
2023-03-26T23:52:19.378Z,1.25
2023-03-26T23:54:47.278Z,1.10
2023-03-26T23:57:13.901Z,1.00
2023-03-26T23:59:41.416Z,1.10
